Time;durP1;ratioP1;P1;durP2;ratioP2;P2;SDS_P1;SDS_P2;PMS_P1;PMS_P2;Temp;Humidity;BMP_temperature;BMP_pressure;BME280_temperature;BME280_humidity;BME280_pressure;Samples;Min_cycle;Max_cycle;Signal;HPM_P1;HPM_P2
2022/11/26 00:01:21;;;;;;;;;;;10.20;70.60;;;;;;5034260;28;19933;-49
2022/11/26 00:03:51;;;;;;;;;;;10.20;70.60;;;;;;5029814;28;19925;-50
2022/11/26 00:06:20;;;;;;;;;;;10.20;70.70;;;;;;5024773;28;20029;-50
2022/11/26 00:08:47;;;;;;;;;;;10.20;70.70;;;;;;5023736;28;19925;-50
2022/11/26 00:11:18;;;;;;;;;;;10.20;70.80;;;;;;5013848;28;19926;-51
2022/11/26 00:13:47;;;;;;;;;;;10.20;70.80;;;;;;5019531;28;20381;-49
2022/11/26 00:16:29;;;;;;;;;;;10.10;70.70;;;;;;5032605;28;19932;-51
2022/11/26 00:18:58;;;;;;;;;;;10.10;70.80;;;;;;5026332;28;19932;-47
2022/11/26 00:21:31;;;;;;;;;;;10.10;70.70;;;;;;5031643;28;20080;-51
2022/11/26 00:24:01;;;;;;;;;;;10.10;70.80;;;;;;5030852;28;19936;-50
2022/11/26 00:26:28;;;;;;;;;;;10.10;70.70;;;;;;5023058;28;19925;-48
2022/11/26 00:28:55;;;;;;;;;;;10.10;70.70;;;;;;4995962;28;19926;-48
2022/11/26 00:31:26;;;;;;;;;;;10.10;70.80;;;;;;5013530;28;20278;-48
2022/11/26 00:33:55;;;;;;;;;;;10.10;70.80;;;;;;5021629;28;19932;-52
2022/11/26 00:36:26;;;;;;;;;;;10.10;70.80;;;;;;5025157;28;20017;-48
2022/11/26 00:39:09;;;;;;;;;;;10.10;71.00;;;;;;5013556;28;20381;-51
2022/11/26 00:41:39;;;;;;;;;;;10.10;71.10;;;;;;5023016;28;19925;-49
2022/11/26 00:44:24;;;;;;;;;;;10.10;71.10;;;;;;5032984;28;19925;-51
2022/11/26 00:46:52;;;;;;;;;;;10.00;70.90;;;;;;5024993;28;19947;-50
2022/11/26 00:49:23;;;;;;;;;;;10.10;71.00;;;;;;5033109;28;19932;-47
2022/11/26 00:51:49;;;;;;;;;;;10.10;70.90;;;;;;5027153;28;20360;-50
2022/11/26 00:54:16;;;;;;;;;;;10.10;70.90;;;;;;5016802;28;19925;-51
2022/11/26 00:56:49;;;;;;;;;;;10.00;70.80;;;;;;5012200;28;19981;-47
2022/11/26 00:59:19;;;;;;;;;;;10.10;71.00;;;;;;5013723;28;20029;-47
2022/11/26 01:01:46;;;;;;;;;;;10.00;70.80;;;;;;5028106;28;19940;-51
2022/11/26 01:04:12;;;;;;;;;;;10.10;70.90;;;;;;5024687;28;19932;-51
2022/11/26 01:06:40;;;;;;;;;;;10.00;70.80;;;;;;5015127;28;20304;-51
2022/11/26 01:09:13;;;;;;;;;;;10.00;70.70;;;;;;5027574;28;20559;-52
2022/11/26 01:11:46;;;;;;;;;;;10.00;70.80;;;;;;5023648;28;20333;-50
2022/11/26 01:14:22;;;;;;;;;;;10.00;70.80;;;;;;5032759;28;20006;-47
2022/11/26 01:16:59;;;;;;;;;;;10.00;70.80;;;;;;5030089;28;19931;-49
2022/11/26 01:19:26;;;;;;;;;;;10.00;70.80;;;;;;5023473;28;20310;-48
2022/11/26 01:21:52;;;;;;;;;;;9.90;70.70;;;;;;5024349;28;20322;-50
2022/11/26 01:24:21;;;;;;;;;;;9.90;70.70;;;;;;5017101;28;20117;-48
2022/11/26 01:26:51;;;;;;;;;;;9.90;70.70;;;;;;5013615;28;19925;-51
2022/11/26 01:29:23;;;;;;;;;;;9.90;70.80;;;;;;5028714;28;20442;-51
2022/11/26 01:31:50;;;;;;;;;;;9.90;70.80;;;;;;5012615;28;19930;-50
2022/11/26 01:34:16;;;;;;;;;;;9.90;70.80;;;;;;5011806;28;19925;-47
2022/11/26 01:36:43;;;;;;;;;;;9.90;70.80;;;;;;5000085;28;19925;-51
2022/11/26 01:39:19;;;;;;;;;;;9.90;70.80;;;;;;5029703;28;19979;-47
2022/11/26 01:41:48;;;;;;;;;;;9.80;70.80;;;;;;5022914;28;20316;-51
2022/11/26 01:44:19;;;;;;;;;;;9.80;70.80;;;;;;5031978;28;19931;-48
2022/11/26 01:46:50;;;;;;;;;;;9.80;70.80;;;;;;5030191;28;20341;-48
2022/11/26 01:49:24;;;;;;;;;;;9.80;70.80;;;;;;5030186;28;19929;-49
2022/11/26 01:52:00;;;;;;;;;;;9.80;70.80;;;;;;5020310;28;19933;-47
2022/11/26 01:54:29;;;;;;;;;;;9.80;70.80;;;;;;5011914;28;19926;-50
2022/11/26 01:57:06;;;;;;;;;;;9.70;70.80;;;;;;5018997;28;20004;-51
2022/11/26 01:59:35;;;;;;;;;;;9.70;70.80;;;;;;5030993;28;19932;-47
2022/11/26 02:02:05;;;;;;;;;;;9.70;70.80;;;;;;5007526;28;19926;-51
2022/11/26 02:04:34;;;;;;;;;;;9.70;70.80;;;;;;5032029;28;19925;-51
2022/11/26 02:07:02;;;;;;;;;;;9.70;70.70;;;;;;5026993;28;20285;-47
2022/11/26 02:09:29;;;;;;;;;;;9.70;70.70;;;;;;5030207;28;19933;-49
2022/11/26 02:11:57;;;;;;;;;;;9.60;70.70;;;;;;5012023;28;19972;-48
2022/11/26 02:14:34;;;;;;;;;;;9.60;70.70;;;;;;5021960;28;20393;-48
2022/11/26 02:17:14;;;;;;;;;;;9.60;70.70;;;;;;5020864;28;19925;-52
2022/11/26 02:20:01;;;;;;;;;;;9.60;70.80;;;;;;5022943;28;19991;-52
2022/11/26 02:22:37;;;;;;;;;;;9.60;70.80;;;;;;5027046;28;20694;-48
2022/11/26 02:25:15;;;;;;;;;;;9.60;70.80;;;;;;5022366;28;19932;-51
2022/11/26 02:27:48;;;;;;;;;;;9.50;70.70;;;;;;5022999;28;19933;-49
2022/11/26 02:30:16;;;;;;;;;;;9.50;70.70;;;;;;5029117;28;19935;-51
2022/11/26 02:32:43;;;;;;;;;;;9.50;70.70;;;;;;5029965;28;20385;-48
2022/11/26 02:35:23;;;;;;;;;;;9.50;70.70;;;;;;5028443;28;19932;-51
2022/11/26 02:37:53;;;;;;;;;;;9.50;70.70;;;;;;5022460;28;19929;-50
2022/11/26 02:40:22;;;;;;;;;;;9.40;70.70;;;;;;5031210;28;20355;-48
2022/11/26 02:42:49;;;;;;;;;;;9.40;70.70;;;;;;5025250;28;20290;-51
2022/11/26 02:45:23;;;;;;;;;;;9.40;70.70;;;;;;5024400;28;20294;-47
2022/11/26 02:47:51;;;;;;;;;;;9.40;70.70;;;;;;5030549;28;19929;-52
2022/11/26 02:50:21;;;;;;;;;;;9.40;70.70;;;;;;5030926;28;19925;-47
2022/11/26 02:52:49;;;;;;;;;;;9.40;70.70;;;;;;5020100;28;20044;-47
2022/11/26 02:55:18;;;;;;;;;;;9.30;70.70;;;;;;5021096;28;20275;-50
2022/11/26 02:57:48;;;;;;;;;;;9.30;70.70;;;;;;5019221;28;19925;-48
2022/11/26 03:00:18;;;;;;;;;;;9.30;70.70;;;;;;5011469;28;19932;-48
2022/11/26 03:03:08;;;;;;;;;;;9.30;70.70;;;;;;5017495;28;20512;-48
2022/11/26 03:05:37;;;;;;;;;;;9.30;70.70;;;;;;5022335;28;19932;-47
2022/11/26 03:08:06;;;;;;;;;;;9.30;70.80;;;;;;5031118;28;19963;-52
2022/11/26 03:10:37;;;;;;;;;;;9.30;70.80;;;;;;4999217;28;20028;-48
2022/11/26 03:13:06;;;;;;;;;;;9.30;70.90;;;;;;5010197;28;19983;-48
2022/11/26 03:15:32;;;;;;;;;;;9.20;70.90;;;;;;5022254;28;20302;-50
2022/11/26 03:17:59;;;;;;;;;;;9.20;71.00;;;;;;5013143;28;19925;-51
2022/11/26 03:20:26;;;;;;;;;;;9.20;71.00;;;;;;5028112;28;19957;-51
2022/11/26 03:22:53;;;;;;;;;;;9.20;71.00;;;;;;5029705;28;20451;-48
2022/11/26 03:25:21;;;;;;;;;;;9.20;71.00;;;;;;5022195;28;20393;-51
2022/11/26 03:27:48;;;;;;;;;;;9.20;71.10;;;;;;5030395;28;19925;-51
2022/11/26 03:30:15;;;;;;;;;;;9.20;71.10;;;;;;5026538;28;20419;-50
2022/11/26 03:32:45;;;;;;;;;;;9.20;71.10;;;;;;5020128;28;19925;-50
2022/11/26 03:35:11;;;;;;;;;;;9.20;71.00;;;;;;5024618;28;20332;-50
2022/11/26 03:37:41;;;;;;;;;;;9.20;70.90;;;;;;5030344;28;19959;-49
2022/11/26 03:40:15;;;;;;;;;;;9.20;71.60;;;;;;5024529;23;20305;-47
2022/11/26 03:42:42;;;;;;;;;;;9.20;71.00;;;;;;5011630;28;19929;-45
2022/11/26 03:45:09;;;;;;;;;;;9.20;71.00;;;;;;5010910;28;20580;-45
2022/11/26 03:47:42;;;;;;;;;;;9.20;71.00;;;;;;5010425;28;19926;-44
2022/11/26 03:50:09;;;;;;;;;;;9.20;71.10;;;;;;5026892;28;19929;-45
2022/11/26 03:52:36;;;;;;;;;;;9.20;71.10;;;;;;5021063;28;20413;-46
2022/11/26 03:55:05;;;;;;;;;;;9.20;71.20;;;;;;5010527;28;20409;-45
2022/11/26 03:57:37;;;;;;;;;;;9.10;71.10;;;;;;5012859;28;20020;-45
2022/11/26 04:00:05;;;;;;;;;;;9.10;71.20;;;;;;5021533;28;20427;-44
2022/11/26 04:02:34;;;;;;;;;;;9.10;71.20;;;;;;5022079;28;19939;-44
2022/11/26 04:05:03;;;;;;;;;;;9.10;71.20;;;;;;5031696;28;20365;-44
2022/11/26 04:07:37;;;;;;;;;;;9.20;71.20;;;;;;5022989;28;19932;-45
2022/11/26 04:10:07;;;;;;;;;;;9.10;71.00;;;;;;5031778;28;20020;-45
2022/11/26 04:12:33;;;;;;;;;;;9.10;71.00;;;;;;5025719;28;20420;-45
2022/11/26 04:15:00;;;;;;;;;;;9.10;71.10;;;;;;5032359;28;19936;-44
2022/11/26 04:17:26;;;;;;;;;;;9.10;71.10;;;;;;5031759;28;19926;-45
2022/11/26 04:19:55;;;;;;;;;;;9.10;71.20;;;;;;5013957;28;19995;-45
2022/11/26 04:22:22;;;;;;;;;;;9.10;71.20;;;;;;5001143;28;20304;-45
2022/11/26 04:24:50;;;;;;;;;;;9.10;71.20;;;;;;5030614;28;20002;-45
2022/11/26 04:27:23;;;;;;;;;;;9.10;71.80;;;;;;5018728;28;20514;-45
2022/11/26 04:29:50;;;;;;;;;;;9.10;71.20;;;;;;5029874;28;19934;-45
2022/11/26 04:32:24;;;;;;;;;;;9.10;71.30;;;;;;5029040;28;19956;-45
2022/11/26 04:34:55;;;;;;;;;;;9.10;71.20;;;;;;5033141;28;19931;-46
2022/11/26 04:37:21;;;;;;;;;;;9.10;71.20;;;;;;5022512;28;19938;-45
2022/11/26 04:39:50;;;;;;;;;;;9.00;71.20;;;;;;5024573;28;19963;-45
2022/11/26 04:42:19;;;;;;;;;;;9.00;71.10;;;;;;5033243;28;19929;-46
2022/11/26 04:44:52;;;;;;;;;;;9.00;71.10;;;;;;5031278;28;19925;-45
2022/11/26 04:47:24;;;;;;;;;;;9.00;71.20;;;;;;5023970;28;19940;-45
2022/11/26 04:49:50;;;;;;;;;;;9.10;71.30;;;;;;5024965;28;20390;-46
2022/11/26 04:52:17;;;;;;;;;;;9.00;71.20;;;;;;5026419;28;19925;-46
2022/11/26 04:54:43;;;;;;;;;;;9.00;71.20;;;;;;5023130;28;19995;-46
2022/11/26 04:57:12;;;;;;;;;;;9.00;71.20;;;;;;5026554;28;19932;-44
2022/11/26 04:59:39;;;;;;;;;;;9.00;71.20;;;;;;5030852;28;19925;-44
2022/11/26 05:02:08;;;;;;;;;;;9.00;71.20;;;;;;5024113;28;19979;-45
2022/11/26 05:04:38;;;;;;;;;;;9.10;71.20;;;;;;5029610;28;20333;-45
2022/11/26 05:07:04;;;;;;;;;;;9.00;71.20;;;;;;5027129;28;19926;-44
2022/11/26 05:09:34;;;;;;;;;;;9.00;71.20;;;;;;5021558;28;20012;-45
2022/11/26 05:12:06;;;;;;;;;;;9.00;71.20;;;;;;5014310;28;20028;-46
2022/11/26 05:14:32;;;;;;;;;;;9.00;71.10;;;;;;5030239;28;19925;-46
2022/11/26 05:17:02;;;;;;;;;;;9.00;71.10;;;;;;5023678;28;19948;-48
2022/11/26 05:19:33;;;;;;;;;;;9.00;71.10;;;;;;5032241;28;19964;-48
2022/11/26 05:21:59;;;;;;;;;;;9.00;71.10;;;;;;5029556;28;19964;-45
2022/11/26 05:24:27;;;;;;;;;;;9.00;71.10;;;;;;5030078;28;20292;-46
2022/11/26 05:26:54;;;;;;;;;;;8.90;71.10;;;;;;5023754;28;19929;-49
2022/11/26 05:29:23;;;;;;;;;;;8.90;71.10;;;;;;5032419;28;20277;-45
2022/11/26 05:31:50;;;;;;;;;;;8.90;71.10;;;;;;5029726;28;19948;-45
2022/11/26 05:34:17;;;;;;;;;;;8.90;71.10;;;;;;5025512;28;19929;-46
2022/11/26 05:36:46;;;;;;;;;;;8.90;71.10;;;;;;5030552;28;19971;-46
2022/11/26 05:39:15;;;;;;;;;;;8.90;71.10;;;;;;5032267;28;20349;-46
2022/11/26 05:41:46;;;;;;;;;;;8.90;71.10;;;;;;5023643;28;20344;-45
2022/11/26 05:44:12;;;;;;;;;;;8.90;71.10;;;;;;5025993;28;19933;-45
2022/11/26 05:46:41;;;;;;;;;;;8.90;71.10;;;;;;5023486;28;19979;-47
2022/11/26 05:49:13;;;;;;;;;;;8.80;71.00;;;;;;5032389;28;20015;-47
2022/11/26 05:51:40;;;;;;;;;;;8.90;71.10;;;;;;5027911;28;19925;-47
2022/11/26 05:54:10;;;;;;;;;;;8.80;71.00;;;;;;5018808;28;19926;-49
2022/11/26 05:56:37;;;;;;;;;;;8.80;71.00;;;;;;4994041;28;19972;-49
2022/11/26 05:59:06;;;;;;;;;;;8.80;71.00;;;;;;5012902;28;19975;-48
2022/11/26 06:01:33;;;;;;;;;;;8.80;71.00;;;;;;5020972;28;20009;-47
2022/11/26 06:04:04;;;;;;;;;;;8.70;71.00;;;;;;5023824;28;20385;-50
2022/11/26 06:06:32;;;;;;;;;;;8.70;71.00;;;;;;5031335;28;19972;-50
2022/11/26 06:09:03;;;;;;;;;;;8.70;71.00;;;;;;5024840;28;19925;-48
2022/11/26 06:11:30;;;;;;;;;;;8.70;71.00;;;;;;5022816;28;19933;-44
2022/11/26 06:13:59;;;;;;;;;;;8.70;71.00;;;;;;5031738;28;19932;-47
2022/11/26 06:16:29;;;;;;;;;;;8.70;71.00;;;;;;5025631;28;19925;-47
2022/11/26 06:18:56;;;;;;;;;;;8.70;71.00;;;;;;5027602;28;19940;-47
2022/11/26 06:21:23;;;;;;;;;;;8.70;71.00;;;;;;5031195;28;19925;-46
2022/11/26 06:23:51;;;;;;;;;;;8.70;71.00;;;;;;5017738;28;19980;-46
2022/11/26 06:26:30;;;;;;;;;;;8.60;71.00;;;;;;5014008;28;19930;-45
2022/11/26 06:28:56;;;;;;;;;;;8.60;71.00;;;;;;5026792;28;19929;-45
2022/11/26 06:31:25;;;;;;;;;;;8.60;71.00;;;;;;5023163;28;19933;-46
2022/11/26 06:33:58;;;;;;;;;;;8.60;71.00;;;;;;5030922;28;19936;-45
2022/11/26 06:36:24;;;;;;;;;;;8.60;71.00;;;;;;5019996;28;19933;-46
2022/11/26 06:38:53;;;;;;;;;;;8.60;71.10;;;;;;5026355;28;19932;-45
2022/11/26 06:41:23;;;;;;;;;;;8.60;71.10;;;;;;5023985;28;19933;-45
2022/11/26 06:43:49;;;;;;;;;;;8.60;71.20;;;;;;5030445;28;19929;-46
2022/11/26 06:46:16;;;;;;;;;;;8.60;71.40;;;;;;5022387;28;20321;-45
2022/11/26 06:48:42;;;;;;;;;;;8.60;71.30;;;;;;5022650;28;19929;-46
2022/11/26 06:51:12;;;;;;;;;;;8.60;71.30;;;;;;5015669;28;20286;-45
2022/11/26 06:53:39;;;;;;;;;;;8.60;71.40;;;;;;5027023;28;19933;-47
2022/11/26 06:56:09;;;;;;;;;;;8.60;71.40;;;;;;5016181;28;20110;-45
2022/11/26 06:58:45;;;;;;;;;;;8.60;71.50;;;;;;5022883;28;19925;-46
2022/11/26 07:01:14;;;;;;;;;;;8.60;71.50;;;;;;5023550;28;20339;-46
2022/11/26 07:03:40;;;;;;;;;;;8.60;71.50;;;;;;5031624;28;20086;-45
2022/11/26 07:06:16;;;;;;;;;;;8.60;71.60;;;;;;5029107;28;19936;-44
2022/11/26 07:08:44;;;;;;;;;;;8.60;71.60;;;;;;5021682;28;19948;-46
2022/11/26 07:11:14;;;;;;;;;;;8.70;71.70;;;;;;5025023;28;19932;-50
2022/11/26 07:13:43;;;;;;;;;;;8.70;71.70;;;;;;5031426;28;20036;-46
2022/11/26 07:16:16;;;;;;;;;;;8.80;71.80;;;;;;5019027;28;20015;-49
2022/11/26 07:18:46;;;;;;;;;;;8.70;71.70;;;;;;5023104;28;20274;-50
2022/11/26 07:21:18;;;;;;;;;;;8.70;71.70;;;;;;5031492;28;19940;-48
2022/11/26 07:23:46;;;;;;;;;;;8.80;71.80;;;;;;5019615;28;20019;-50
2022/11/26 07:26:13;;;;;;;;;;;8.70;71.70;;;;;;5022170;28;19925;-45
2022/11/26 07:28:46;;;;;;;;;;;8.80;71.70;;;;;;5023204;28;20019;-50
2022/11/26 07:31:15;;;;;;;;;;;8.80;71.80;;;;;;5031423;28;19925;-48
2022/11/26 07:33:43;;;;;;;;;;;8.80;71.80;;;;;;5026282;28;19925;-48
2022/11/26 07:36:22;;;;;;;;;;;8.80;71.80;;;;;;5030727;28;19940;-50
2022/11/26 07:38:48;;;;;;;;;;;8.80;71.80;;;;;;5023085;28;19925;-48
2022/11/26 07:41:19;;;;;;;;;;;8.90;71.80;;;;;;5034525;28;20389;-46
2022/11/26 07:43:49;;;;;;;;;;;8.90;71.80;;;;;;5030889;28;20386;-48
2022/11/26 07:46:17;;;;;;;;;;;8.90;71.90;;;;;;5034278;28;20368;-46
2022/11/26 07:48:49;;;;;;;;;;;8.90;71.90;;;;;;5026592;28;20020;-45
2022/11/26 07:51:20;;;;;;;;;;;9.00;72.00;;;;;;5030444;28;19932;-46
2022/11/26 07:53:50;;;;;;;;;;;9.00;72.60;;;;;;5024247;28;20309;-46
2022/11/26 07:56:19;;;;;;;;;;;9.00;72.00;;;;;;5026223;28;19987;-47
2022/11/26 07:58:46;;;;;;;;;;;9.00;72.00;;;;;;5016010;28;19957;-45
2022/11/26 08:01:20;;;;;;;;;;;9.00;72.00;;;;;;5017502;28;19925;-47
2022/11/26 08:03:49;;;;;;;;;;;9.10;72.10;;;;;;5033324;28;20432;-46
2022/11/26 08:06:18;;;;;;;;;;;9.10;72.10;;;;;;5025998;28;19948;-46
2022/11/26 08:08:49;;;;;;;;;;;9.10;71.90;;;;;;5032227;28;19931;-48
2022/11/26 08:11:23;;;;;;;;;;;9.10;72.00;;;;;;5022418;28;19936;-45
2022/11/26 08:13:57;;;;;;;;;;;9.10;72.00;;;;;;5033307;28;19931;-46
2022/11/26 08:16:29;;;;;;;;;;;9.20;72.10;;;;;;5025960;28;19932;-48
2022/11/26 08:18:59;;;;;;;;;;;9.20;72.10;;;;;;5034437;28;19960;-47
2022/11/26 08:21:26;;;;;;;;;;;9.20;72.10;;;;;;5028423;28;19925;-47
2022/11/26 08:23:55;;;;;;;;;;;9.20;72.20;;;;;;5020117;28;20020;-48
2022/11/26 08:26:22;;;;;;;;;;;9.30;72.20;;;;;;5014282;28;19929;-45
2022/11/26 08:28:59;;;;;;;;;;;9.30;72.20;;;;;;5021349;28;19980;-47
2022/11/26 08:31:26;;;;;;;;;;;9.30;72.20;;;;;;5012986;28;19932;-46
2022/11/26 08:33:58;;;;;;;;;;;9.40;72.20;;;;;;5021708;28;20024;-47
2022/11/26 08:36:29;;;;;;;;;;;9.40;72.20;;;;;;5014141;28;20004;-45
2022/11/26 08:38:56;;;;;;;;;;;9.40;72.20;;;;;;5020217;28;19931;-45
2022/11/26 08:41:25;;;;;;;;;;;9.40;72.20;;;;;;5033887;28;19961;-45
2022/11/26 08:43:54;;;;;;;;;;;9.50;72.20;;;;;;5025786;28;20424;-46
2022/11/26 08:46:39;;;;;;;;;;;9.50;72.30;;;;;;5033578;28;19925;-47
2022/11/26 08:49:12;;;;;;;;;;;9.50;72.40;;;;;;5030813;28;19951;-46
2022/11/26 08:51:39;;;;;;;;;;;9.60;72.50;;;;;;5031931;28;19931;-45
2022/11/26 08:54:06;;;;;;;;;;;9.60;72.60;;;;;;5001076;28;19936;-45
2022/11/26 08:56:33;;;;;;;;;;;9.60;72.60;;;;;;5033230;28;19933;-45
2022/11/26 08:59:05;;;;;;;;;;;9.70;72.70;;;;;;5027320;28;20603;-46
2022/11/26 09:01:32;;;;;;;;;;;9.80;72.90;;;;;;5025333;28;19929;-47
2022/11/26 09:04:04;;;;;;;;;;;9.80;72.90;;;;;;5033792;28;19925;-47
2022/11/26 09:06:32;;;;;;;;;;;9.90;73.00;;;;;;5029120;28;19925;-46
2022/11/26 09:09:11;;;;;;;;;;;9.90;73.10;;;;;;5014168;28;19925;-45
2022/11/26 09:11:43;;;;;;;;;;;10.00;73.20;;;;;;5024714;28;19972;-49
2022/11/26 09:14:12;;;;;;;;;;;10.10;73.20;;;;;;5033503;28;19931;-49
2022/11/26 09:16:41;;;;;;;;;;;10.20;73.20;;;;;;5027689;28;19925;-45
2022/11/26 09:19:09;;;;;;;;;;;10.20;73.20;;;;;;5032423;28;20552;-48
2022/11/26 09:21:37;;;;;;;;;;;10.30;73.20;;;;;;5024837;28;19932;-49
2022/11/26 09:24:07;;;;;;;;;;;10.40;73.40;;;;;;5014847;28;19930;-46
2022/11/26 09:26:36;;;;;;;;;;;10.50;73.30;;;;;;5019768;28;19925;-45
2022/11/26 09:29:07;;;;;;;;;;;10.60;73.20;;;;;;5026246;28;19971;-50
2022/11/26 09:31:36;;;;;;;;;;;10.70;73.20;;;;;;5024806;28;19931;-46
2022/11/26 09:34:23;;;;;;;;;;;10.80;73.00;;;;;;5028439;28;19931;-49
2022/11/26 09:36:52;;;;;;;;;;;10.80;72.90;;;;;;5031874;28;19937;-47
2022/11/26 09:39:20;;;;;;;;;;;10.90;72.80;;;;;;5024649;28;19925;-49
2022/11/26 09:42:05;;;;;;;;;;;11.00;72.80;;;;;;5032985;28;19925;-50
2022/11/26 09:44:50;;;;;;;;;;;11.10;72.70;;;;;;5024467;28;19940;-47
2022/11/26 09:47:18;;;;;;;;;;;11.10;72.60;;;;;;5032351;28;19925;-47
2022/11/26 09:49:45;;;;;;;;;;;11.20;72.60;;;;;;5023759;28;19925;-47
2022/11/26 09:52:15;;;;;;;;;;;11.20;72.50;;;;;;5028489;28;20448;-47
2022/11/26 09:54:44;;;;;;;;;;;11.30;72.50;;;;;;5022904;28;19925;-46
2022/11/26 09:57:20;;;;;;;;;;;11.40;72.40;;;;;;5002547;28;21274;-47
2022/11/26 09:59:50;;;;;;;;;;;11.40;72.30;;;;;;5012822;28;19925;-50
2022/11/26 10:02:19;;;;;;;;;;;11.50;72.20;;;;;;5014407;28;19926;-47
2022/11/26 10:04:48;;;;;;;;;;;11.60;72.20;;;;;;5025695;28;19932;-45
2022/11/26 10:07:31;;;;;;;;;;;11.60;72.20;;;;;;5020054;28;19932;-46
2022/11/26 10:10:10;;;;;;;;;;;11.70;72.20;;;;;;5034721;23;19929;-48
2022/11/26 10:12:55;;;;;;;;;;;11.80;72.10;;;;;;5007998;28;19929;-47
2022/11/26 10:15:49;;;;;;;;;;;11.80;72.00;;;;;;5010220;28;19925;-47
2022/11/26 10:18:25;;;;;;;;;;;11.80;72.00;;;;;;5012528;28;19925;-48
2022/11/26 10:21:12;;;;;;;;;;;11.90;72.00;;;;;;5012450;28;19930;-47
2022/11/26 10:23:47;;;;;;;;;;;12.00;72.00;;;;;;5006039;28;19936;-48
2022/11/26 10:26:36;;;;;;;;;;;12.00;71.90;;;;;;5006905;28;19979;-46
2022/11/26 10:29:22;;;;;;;;;;;12.10;71.90;;;;;;4992715;28;19933;-46
2022/11/26 10:32:09;;;;;;;;;;;12.10;71.70;;;;;;4998975;28;20357;-46
2022/11/26 10:34:47;;;;;;;;;;;12.20;71.60;;;;;;5010794;28;19925;-47
2022/11/26 10:37:13;;;;;;;;;;;12.20;71.60;;;;;;4992220;28;19969;-48
2022/11/26 10:39:42;;;;;;;;;;;12.30;71.70;;;;;;4995337;28;20036;-48
2022/11/26 10:42:19;;;;;;;;;;;12.30;71.70;;;;;;5001399;28;19967;-48
2022/11/26 10:44:46;;;;;;;;;;;12.40;71.70;;;;;;5010590;28;19925;-48
2022/11/26 10:47:28;;;;;;;;;;;12.40;71.70;;;;;;4997726;28;19936;-47
2022/11/26 10:50:11;;;;;;;;;;;12.50;71.60;;;;;;4995242;28;19932;-46
2022/11/26 10:53:03;;;;;;;;;;;12.50;71.50;;;;;;5008049;28;20405;-47
2022/11/26 10:55:40;;;;;;;;;;;12.60;71.50;;;;;;5008177;28;20316;-47
2022/11/26 10:58:27;;;;;;;;;;;12.60;71.40;;;;;;5010647;28;20428;-47
2022/11/26 11:01:00;;;;;;;;;;;12.70;71.40;;;;;;5003487;28;19933;-47
2022/11/26 11:03:52;;;;;;;;;;;12.70;71.30;;;;;;5009914;28;20021;-48
2022/11/26 11:06:42;;;;;;;;;;;12.80;71.30;;;;;;4991951;28;20337;-47
2022/11/26 11:09:37;;;;;;;;;;;12.80;71.30;;;;;;4994558;28;20382;-47
2022/11/26 11:12:09;;;;;;;;;;;12.90;71.40;;;;;;5000230;28;19925;-47
2022/11/26 11:14:42;;;;;;;;;;;12.90;71.30;;;;;;5012922;28;19925;-48
2022/11/26 11:17:30;;;;;;;;;;;13.00;71.30;;;;;;5006925;28;19925;-47
2022/11/26 11:20:00;;;;;;;;;;;13.00;71.20;;;;;;5006197;28;19953;-47
2022/11/26 11:22:28;;;;;;;;;;;13.10;71.20;;;;;;5015559;28;19933;-48
2022/11/26 11:24:56;;;;;;;;;;;13.10;71.20;;;;;;4996201;28;19926;-47
2022/11/26 11:27:26;;;;;;;;;;;13.20;71.20;;;;;;5002288;28;20451;-48
2022/11/26 11:29:58;;;;;;;;;;;13.20;71.10;;;;;;5004951;28;19948;-47
2022/11/26 11:32:32;;;;;;;;;;;13.20;71.00;;;;;;5011813;28;20290;-47
2022/11/26 11:35:18;;;;;;;;;;;13.30;70.90;;;;;;5014708;28;19931;-47
2022/11/26 11:37:50;;;;;;;;;;;13.40;70.90;;;;;;5003475;28;20286;-47
2022/11/26 11:40:26;;;;;;;;;;;13.40;70.90;;;;;;5015287;28;20021;-48
2022/11/26 11:43:00;;;;;;;;;;;13.40;70.70;;;;;;5004062;28;19957;-48
2022/11/26 11:45:37;;;;;;;;;;;13.40;70.60;;;;;;4997758;28;19930;-47
2022/11/26 11:48:37;;;;;;;;;;;13.40;70.40;;;;;;5006326;28;19932;-50
2022/11/26 11:51:12;;;;;;;;;;;13.50;70.40;;;;;;5008260;28;20404;-47
2022/11/26 11:53:54;;;;;;;;;;;13.50;70.30;;;;;;5014987;28;19926;-47
2022/11/26 11:56:37;;;;;;;;;;;13.50;70.30;;;;;;5007448;28;19930;-46
2022/11/26 11:59:15;;;;;;;;;;;13.50;70.30;;;;;;5007389;28;19929;-46
2022/11/26 12:01:46;;;;;;;;;;;13.50;70.30;;;;;;5005128;28;20040;-47
2022/11/26 12:04:16;;;;;;;;;;;13.50;70.40;;;;;;4997562;28;19932;-47
2022/11/26 12:06:57;;;;;;;;;;;13.50;70.30;;;;;;5013381;28;20025;-47
2022/11/26 12:09:26;;;;;;;;;;;13.50;70.20;;;;;;5007361;28;19936;-47
2022/11/26 12:12:06;;;;;;;;;;;13.50;70.10;;;;;;4995225;28;19937;-47
2022/11/26 12:14:41;;;;;;;;;;;13.50;70.00;;;;;;5001378;28;19933;-47
2022/11/26 12:17:16;;;;;;;;;;;13.40;69.90;;;;;;5009929;28;19929;-48
2022/11/26 12:19:43;;;;;;;;;;;13.40;69.90;;;;;;5004562;28;19937;-48
2022/11/26 12:22:17;;;;;;;;;;;13.40;70.00;;;;;;5001461;28;19925;-48
2022/11/26 12:24:49;;;;;;;;;;;13.40;70.00;;;;;;5011654;28;19925;-48
2022/11/26 12:27:29;;;;;;;;;;;13.40;70.10;;;;;;5005061;28;19925;-47
2022/11/26 12:30:08;;;;;;;;;;;13.40;70.20;;;;;;5014256;28;19926;-47
2022/11/26 12:32:36;;;;;;;;;;;13.50;70.20;;;;;;5007136;28;19929;-47
2022/11/26 12:35:11;;;;;;;;;;;13.50;70.30;;;;;;5006048;28;19933;-46
2022/11/26 12:37:45;;;;;;;;;;;13.50;70.30;;;;;;5012993;28;20287;-46
2022/11/26 12:40:21;;;;;;;;;;;13.60;70.40;;;;;;4994668;28;19929;-48
2022/11/26 12:43:12;;;;;;;;;;;13.60;70.40;;;;;;5009012;28;19929;-47
2022/11/26 12:45:55;;;;;;;;;;;13.60;70.40;;;;;;5012191;28;19964;-47
2022/11/26 12:48:34;;;;;;;;;;;13.70;70.20;;;;;;5007114;28;19926;-47
2022/11/26 12:51:20;;;;;;;;;;;13.80;70.30;;;;;;4999068;28;20356;-47
2022/11/26 12:53:51;;;;;;;;;;;13.80;70.20;;;;;;5009086;28;19925;-47
2022/11/26 12:56:40;;;;;;;;;;;13.80;70.10;;;;;;5013518;28;20008;-47
2022/11/26 12:59:07;;;;;;;;;;;13.90;70.00;;;;;;4994198;28;19957;-49
2022/11/26 13:01:34;;;;;;;;;;;14.00;70.00;;;;;;5002640;28;19933;-47
2022/11/26 13:04:05;;;;;;;;;;;14.00;69.80;;;;;;5013754;28;19926;-47
2022/11/26 13:07:00;;;;;;;;;;;14.00;69.70;;;;;;4994350;28;19930;-47
2022/11/26 13:09:45;;;;;;;;;;;14.10;69.60;;;;;;5000940;28;19976;-47
2022/11/26 13:12:21;;;;;;;;;;;14.10;69.50;;;;;;5004714;28;19933;-47
2022/11/26 13:14:57;;;;;;;;;;;14.10;69.20;;;;;;5012833;28;19933;-48
2022/11/26 13:17:38;;;;;;;;;;;14.10;69.10;;;;;;4998512;28;19926;-47
2022/11/26 13:20:16;;;;;;;;;;;14.10;69.10;;;;;;5011440;28;20286;-49
2022/11/26 13:22:52;;;;;;;;;;;14.10;69.10;;;;;;5011581;28;20133;-47
2022/11/26 13:25:32;;;;;;;;;;;14.10;68.90;;;;;;5006062;28;19937;-48
2022/11/26 13:28:04;;;;;;;;;;;14.10;68.90;;;;;;4993712;28;20583;-47
2022/11/26 13:30:50;;;;;;;;;;;14.10;68.80;;;;;;5006959;28;19930;-47
2022/11/26 13:33:19;;;;;;;;;;;14.10;68.80;;;;;;5009840;28;19967;-48
2022/11/26 13:35:59;;;;;;;;;;;14.10;68.80;;;;;;4993638;28;19933;-48
2022/11/26 13:38:34;;;;;;;;;;;14.10;68.70;;;;;;4993841;28;20393;-52
2022/11/26 13:41:04;;;;;;;;;;;14.10;68.70;;;;;;5008697;28;19925;-52
2022/11/26 13:43:48;;;;;;;;;;;14.10;68.80;;;;;;5005045;28;19926;-52
2022/11/26 13:46:23;;;;;;;;;;;14.10;68.70;;;;;;4992741;28;20309;-50
2022/11/26 13:48:58;;;;;;;;;;;14.10;68.80;;;;;;5002710;28;20025;-48
2022/11/26 13:51:43;;;;;;;;;;;14.10;68.70;;;;;;5012809;28;20017;-52
2022/11/26 13:54:16;;;;;;;;;;;14.10;68.70;;;;;;5012751;28;19925;-47
2022/11/26 13:56:43;;;;;;;;;;;14.10;68.60;;;;;;5010166;28;20417;-50
2022/11/26 13:59:15;;;;;;;;;;;14.10;68.50;;;;;;5007851;28;19949;-48
2022/11/26 14:01:42;;;;;;;;;;;14.10;68.50;;;;;;5003083;28;19926;-52
2022/11/26 14:04:11;;;;;;;;;;;14.10;68.60;;;;;;4993212;28;19932;-51
2022/11/26 14:06:57;;;;;;;;;;;14.00;68.60;;;;;;4995173;28;20377;-51
2022/11/26 14:09:45;;;;;;;;;;;14.00;68.50;;;;;;5012110;28;19933;-48
2022/11/26 14:12:19;;;;;;;;;;;14.10;68.60;;;;;;4999458;28;19926;-51
2022/11/26 14:14:51;;;;;;;;;;;14.00;68.70;;;;;;5010509;28;20418;-50
2022/11/26 14:17:19;;;;;;;;;;;14.00;68.80;;;;;;5012008;28;19926;-48
2022/11/26 14:19:50;;;;;;;;;;;14.00;68.80;;;;;;5010864;28;20448;-50
2022/11/26 14:22:19;;;;;;;;;;;14.00;68.80;;;;;;5012567;28;19972;-48
2022/11/26 14:24:48;;;;;;;;;;;14.00;68.80;;;;;;5006093;28;19929;-47
2022/11/26 14:27:22;;;;;;;;;;;14.10;68.80;;;;;;5002584;28;19925;-52
2022/11/26 14:29:52;;;;;;;;;;;14.10;68.90;;;;;;5011233;28;19944;-50
2022/11/26 14:32:26;;;;;;;;;;;14.10;68.90;;;;;;4997225;28;20495;-48
2022/11/26 14:34:55;;;;;;;;;;;14.10;68.80;;;;;;4996080;28;19929;-52
2022/11/26 14:37:26;;;;;;;;;;;14.20;68.80;;;;;;5011648;28;19926;-48
2022/11/26 14:40:06;;;;;;;;;;;14.20;68.80;;;;;;5000390;28;20337;-48
2022/11/26 14:42:39;;;;;;;;;;;14.20;68.80;;;;;;4995090;28;19936;-47
2022/11/26 14:45:20;;;;;;;;;;;14.20;68.80;;;;;;5007290;28;19925;-51
2022/11/26 14:47:52;;;;;;;;;;;14.30;68.70;;;;;;5010328;28;19925;-47
2022/11/26 14:50:24;;;;;;;;;;;14.30;68.60;;;;;;4995831;28;19926;-48
2022/11/26 14:52:58;;;;;;;;;;;14.30;68.60;;;;;;5010676;28;20066;-51